Menu Close Menu
Station Historical Data
Daily Summary for September 20, 2017 Units:  Metric    English   Both
« Previous Day
Next Day »
Daily Weekly Monthly Yearly Custom
  High: Low: Average:
Temperature: 31.4 °C 18.9 °C 24.2 °C
Dew Point: 20.7 °C 17.2 °C 19.1 °C
Humidity: 93% 46% 76%
Wind Speed: 12.9km/h 3.2km/h 7.7km/h
Wind Gust: 12.9km/h - -
Wind- - WNW
Pressure: 1018.2 hPa 1015.1 hPa -
Precipitation: 0 mm    
Historical Graphs
 
 
Tabular Data for September 20, 2017
Time Temperature Dew Point Pressure Wind Wind Speed Wind Gust Humidity Rainfall Rate (Hourly) solar Conditions
00:00 21.5 °C 19.2 °C 1015.1 hPa WSW 4.8 km/h 4.8 km/h 87% 0 mm WeatherDisplay:10.37 W/m2 OVC
00:05 21.4 °C 19.2 °C 1015.1 hPa WSW 4.8 km/h 4.8 km/h 87% 0 mm WeatherDisplay:10.37 W/m2 OVC
00:10 21.3 °C 19 °C 1015.1 hPa WSW 4.8 km/h 4.8 km/h 87% 0 mm WeatherDisplay:10.37 W/m2 OVC
00:15 21.2 °C 19.1 °C 1015.1 hPa West 8 km/h 8 km/h 88% 0 mm WeatherDisplay:10.37 W/m2 CLR
00:20 21.1 °C 19 °C 1015.1 hPa West 8 km/h 8 km/h 88% 0 mm WeatherDisplay:10.37 W/m2 CLR
00:25 21 °C 18.9 °C 1015.1 hPa West 8 km/h 8 km/h 88% 0 mm WeatherDisplay:10.37 W/m2 CLR
00:30 20.9 °C 19.1 °C 1015.1 hPa West 8 km/h 8 km/h 89% 0 mm WeatherDisplay:10.37 W/m2 CLR
00:35 20.9 °C 19.1 °C 1015.1 hPa West 8 km/h 8 km/h 89% 0 mm WeatherDisplay:10.37 W/m2 CLR
00:40 21.1 °C 19.2 °C 1015.1 hPa West 8 km/h 8 km/h 89% 0 mm WeatherDisplay:10.37 W/m2 CLR
00:45 21.1 °C 19.2 °C 1015.1 hPa West 8 km/h 8 km/h 89% 0 mm WeatherDisplay:10.37 W/m2 CLR
00:50 21.1 °C 19.2 °C 1015.5 hPa West 8 km/h 8 km/h 89% 0 mm WeatherDisplay:10.37 W/m2 CLR
00:55 21.1 °C 19.2 °C 1015.5 hPa West 8 km/h 8 km/h 89% 0 mm WeatherDisplay:10.37 W/m2 CLR
01:00 21.1 °C 19.2 °C 1015.5 hPa West 8 km/h 8 km/h 89% 0 mm WeatherDisplay:10.37 W/m2 CLR
01:05 21.2 °C 19.3 °C 1015.5 hPa West 8 km/h 8 km/h 89% 0 mm WeatherDisplay:10.37 W/m2 CLR
01:10 21.3 °C 19.3 °C 1015.8 hPa West 8 km/h 8 km/h 88% 0 mm WeatherDisplay:10.37 W/m2 CLR
01:15 21.4 °C 19.2 °C 1015.8 hPa West 8 km/h 8 km/h 87% 0 mm WeatherDisplay:10.37 W/m2 CLR
01:20 21.3 °C 19.1 °C 1015.8 hPa West 8 km/h 8 km/h 87% 0 mm WeatherDisplay:10.37 W/m2 CLR
01:25 21.3 °C 19.2 °C 1015.8 hPa West 8 km/h 8 km/h 88% 0 mm WeatherDisplay:10.37 W/m2 CLR
01:30 21.3 °C 19.2 °C 1015.8 hPa West 8 km/h 8 km/h 88% 0 mm WeatherDisplay:10.37 W/m2 CLR
01:35 21.3 °C 19.3 °C 1015.8 hPa West 8 km/h 8 km/h 88% 0 mm WeatherDisplay:10.37 W/m2 CLR
01:40 21.3 °C 19.2 °C 1015.8 hPa West 8 km/h 8 km/h 88% 0 mm WeatherDisplay:10.37 W/m2 CLR
01:45 21.3 °C 19.2 °C 1015.8 hPa West 8 km/h 8 km/h 88% 0 mm WeatherDisplay:10.37 W/m2 CLR
01:50 21.3 °C 19.2 °C 1015.8 hPa West 8 km/h 8 km/h 88% 0 mm WeatherDisplay:10.37 W/m2 CLR
01:55 21.2 °C 19.3 °C 1015.8 hPa West 8 km/h 8 km/h 89% 0 mm WeatherDisplay:10.37 W/m2 CLR
02:00 21.1 °C 19.2 °C 1015.8 hPa West 8 km/h 8 km/h 89% 0 mm WeatherDisplay:10.37 W/m2 CLR
02:05 21.1 °C 19.2 °C 1015.8 hPa West 8 km/h 8 km/h 89% 0 mm WeatherDisplay:10.37 W/m2 CLR
02:10 21 °C 19.1 °C 1015.8 hPa West 8 km/h 8 km/h 89% 0 mm WeatherDisplay:10.37 W/m2 CLR
02:15 20.9 °C 19.2 °C 1015.8 hPa WNW 8 km/h 8 km/h 90% 0 mm WeatherDisplay:10.37 W/m2 CLR
02:20 20.9 °C 19.2 °C 1015.8 hPa WNW 8 km/h 8 km/h 90% 0 mm WeatherDisplay:10.37 W/m2 CLR
02:30 20.9 °C 19.2 °C 1015.8 hPa WNW 8 km/h 8 km/h 90% 0 mm WeatherDisplay:10.37 W/m2 CLR
02:40 21 °C 19.3 °C 1015.8 hPa WNW 8 km/h 8 km/h 90% 0 mm WeatherDisplay:10.37 W/m2 CLR
02:45 21.1 °C 19.3 °C 1015.8 hPa WNW 8 km/h 8 km/h 90% 0 mm WeatherDisplay:10.37 W/m2 CLR
02:50 21 °C 19.3 °C 1015.8 hPa WNW 8 km/h 8 km/h 90% 0 mm WeatherDisplay:10.37 W/m2 CLR
02:55 21 °C 19.3 °C 1015.8 hPa WNW 8 km/h 8 km/h 90% 0 mm WeatherDisplay:10.37 W/m2 CLR
03:00 21 °C 19.3 °C 1015.5 hPa WNW 8 km/h 8 km/h 90% 0 mm WeatherDisplay:10.37 W/m2 CLR
03:05 21 °C 19.3 °C 1015.5 hPa WNW 8 km/h 8 km/h 90% 0 mm WeatherDisplay:10.37 W/m2 CLR
03:10 20.9 °C 19.2 °C 1015.5 hPa WNW 8 km/h 8 km/h 90% 0 mm WeatherDisplay:10.37 W/m2 CLR
03:15 20.9 °C 19.2 °C 1015.5 hPa NW 4.8 km/h 8 km/h 90% 0 mm WeatherDisplay:10.37 W/m2 CLR
03:20 20.9 °C 19.2 °C 1015.5 hPa NNW 4.8 km/h 4.8 km/h 90% 0 mm WeatherDisplay:10.37 W/m2 CLR
03:25 20.9 °C 19.2 °C 1015.5 hPa NNW 4.8 km/h 4.8 km/h 90% 0 mm WeatherDisplay:10.37 W/m2 CLR
03:30 20.8 °C 19.1 °C 1015.5 hPa NNW 4.8 km/h 4.8 km/h 90% 0 mm WeatherDisplay:10.37 W/m2 CLR
03:35 20.7 °C 18.9 °C 1015.5 hPa NNW 4.8 km/h 4.8 km/h 90% 0 mm WeatherDisplay:10.37 W/m2 CLR
03:40 20.6 °C 18.8 °C 1015.5 hPa NNW 4.8 km/h 4.8 km/h 90% 0 mm WeatherDisplay:10.37 W/m2 CLR
03:45 20.5 °C 18.8 °C 1015.5 hPa NNW 4.8 km/h 4.8 km/h 90% 0 mm WeatherDisplay:10.37 W/m2 CLR
03:50 20.4 °C 18.7 °C 1015.5 hPa NNW 4.8 km/h 4.8 km/h 90% 0 mm WeatherDisplay:10.37 W/m2 CLR
03:55 20.3 °C 18.8 °C 1015.5 hPa NNW 4.8 km/h 4.8 km/h 91% 0 mm WeatherDisplay:10.37 W/m2 CLR
04:00 20.3 °C 18.8 °C 1015.5 hPa NNW 4.8 km/h 4.8 km/h 91% 0 mm WeatherDisplay:10.37 W/m2 CLR
04:05 20.2 °C 18.7 °C 1015.5 hPa NNW 4.8 km/h 4.8 km/h 91% 0 mm WeatherDisplay:10.37 W/m2 CLR
04:10 20.2 °C 18.7 °C 1015.5 hPa NNW 4.8 km/h 4.8 km/h 91% 0 mm WeatherDisplay:10.37 W/m2 CLR
04:15 20.1 °C 18.6 °C 1015.5 hPa NNW 4.8 km/h 4.8 km/h 91% 0 mm WeatherDisplay:10.37 W/m2 CLR
04:20 20.1 °C 18.6 °C 1015.5 hPa NNW 4.8 km/h 4.8 km/h 91% 0 mm WeatherDisplay:10.37 W/m2 CLR
04:25 20.1 °C 18.6 °C 1015.5 hPa NNW 4.8 km/h 4.8 km/h 91% 0 mm WeatherDisplay:10.37 W/m2 CLR
04:30 20 °C 18.5 °C 1015.5 hPa NNW 4.8 km/h 4.8 km/h 91% 0 mm WeatherDisplay:10.37 W/m2 CLR
04:40 19.9 °C 18.4 °C 1015.5 hPa NNW 4.8 km/h 4.8 km/h 91% 0 mm WeatherDisplay:10.37 W/m2 CLR
04:45 19.9 °C 18.6 °C 1015.5 hPa NNW 4.8 km/h 4.8 km/h 92% 0 mm WeatherDisplay:10.37 W/m2 CLR
04:50 19.8 °C 18.5 °C 1015.5 hPa NNW 4.8 km/h 4.8 km/h 92% 0 mm WeatherDisplay:10.37 W/m2 CLR
04:55 19.8 °C 18.4 °C 1015.5 hPa NNW 4.8 km/h 4.8 km/h 92% 0 mm WeatherDisplay:10.37 W/m2 CLR
05:00 19.7 °C 18.4 °C 1015.5 hPa NNW 4.8 km/h 4.8 km/h 92% 0 mm WeatherDisplay:10.37 W/m2 CLR
05:05 19.7 °C 18.3 °C 1015.5 hPa NNW 4.8 km/h 4.8 km/h 92% 0 mm WeatherDisplay:10.37 W/m2 CLR
05:10 19.6 °C 18.3 °C 1015.5 hPa NNW 4.8 km/h 4.8 km/h 92% 0 mm WeatherDisplay:10.37 W/m2 CLR
05:15 19.6 °C 18.3 °C 1015.5 hPa NNW 4.8 km/h 4.8 km/h 92% 0 mm WeatherDisplay:10.37 W/m2 CLR
05:20 19.6 °C 18.2 °C 1015.1 hPa NNW 4.8 km/h 4.8 km/h 92% 0 mm WeatherDisplay:10.37 W/m2 CLR
05:25 19.6 °C 18.2 °C 1015.1 hPa NNW 4.8 km/h 4.8 km/h 92% 0 mm WeatherDisplay:10.37 W/m2 CLR
05:30 19.5 °C 18.2 °C 1015.5 hPa NNW 4.8 km/h 4.8 km/h 92% 0 mm WeatherDisplay:10.37 W/m2 CLR
05:35 19.5 °C 18.2 °C 1015.5 hPa NNW 4.8 km/h 4.8 km/h 92% 0 mm WeatherDisplay:10.37 W/m2 CLR
05:40 19.5 °C 18.2 °C 1015.5 hPa NNW 4.8 km/h 4.8 km/h 92% 0 mm WeatherDisplay:10.37 W/m2 CLR
05:45 19.5 °C 18.2 °C 1015.5 hPa NNW 4.8 km/h 4.8 km/h 92% 0 mm WeatherDisplay:10.37 W/m2 CLR
05:50 19.4 °C 18.1 °C 1015.5 hPa NNW 4.8 km/h 4.8 km/h 92% 0 mm WeatherDisplay:10.37 W/m2 CLR
05:55 19.3 °C 18 °C 1015.5 hPa NNW 4.8 km/h 4.8 km/h 92% 0 mm WeatherDisplay:10.37 W/m2 CLR
06:00 19.3 °C 17.9 °C 1015.5 hPa NNW 4.8 km/h 4.8 km/h 92% 0 mm WeatherDisplay:10.37 W/m2 CLR
06:05 19.2 °C 17.9 °C 1015.8 hPa NNW 4.8 km/h 4.8 km/h 92% 0 mm WeatherDisplay:10.37 W/m2 CLR
06:10 19.2 °C 17.9 °C 1015.8 hPa NNW 4.8 km/h 4.8 km/h 92% 0 mm WeatherDisplay:10.37 W/m2 CLR
06:15 19.2 °C 17.9 °C 1015.8 hPa NNW 4.8 km/h 4.8 km/h 92% 0 mm WeatherDisplay:10.37 W/m2 CLR
06:20 19.3 °C 17.9 °C 1015.8 hPa NNW 4.8 km/h 4.8 km/h 92% 0 mm WeatherDisplay:10.37 W/m2 CLR
06:25 19.3 °C 17.9 °C 1015.8 hPa NNW 4.8 km/h 4.8 km/h 92% 0 mm WeatherDisplay:10.37 W/m2 CLR
06:30 19.2 °C 17.9 °C 1015.8 hPa NNW 4.8 km/h 4.8 km/h 92% 0 mm WeatherDisplay:10.37 W/m2 CLR
06:35 19.2 °C 17.8 °C 1016.1 hPa NNW 4.8 km/h 4.8 km/h 92% 0 mm WeatherDisplay:10.37 W/m2 CLR
06:40 19.1 °C 17.8 °C 1016.1 hPa NNW 4.8 km/h 4.8 km/h 92% 0 mm WeatherDisplay:10.37 W/m2 CLR
06:45 19.2 °C 17.8 °C 1016.1 hPa NNW 4.8 km/h 4.8 km/h 92% 0 mm WeatherDisplay:10.37 W/m2 CLR
06:50 19.5 °C 18.3 °C 1016.1 hPa NNW 4.8 km/h 4.8 km/h 93% 0 mm WeatherDisplay:10.37 W/m2 CLR
06:55 19.4 °C 18.1 °C 1016.1 hPa NNW 4.8 km/h 4.8 km/h 92% 0 mm WeatherDisplay:10.37 W/m2 CLR
07:00 19.2 °C 17.8 °C 1016.5 hPa NNW 4.8 km/h 4.8 km/h 92% 0 mm WeatherDisplay:10.37 W/m2 CLR
07:05 19.1 °C 17.7 °C 1016.5 hPa NNW 4.8 km/h 4.8 km/h 92% 0 mm WeatherDisplay:10.37 W/m2 CLR
07:10 19 °C 17.7 °C 1016.5 hPa NNW 4.8 km/h 4.8 km/h 92% 0 mm WeatherDisplay:10.37 W/m2 CLR
07:15 18.9 °C 17.6 °C 1016.5 hPa NNW 4.8 km/h 4.8 km/h 92% 0 mm WeatherDisplay:10.37 W/m2 CLR
07:20 18.9 °C 17.6 °C 1016.8 hPa NNW 4.8 km/h 4.8 km/h 92% 0 mm WeatherDisplay:10.37 W/m2 CLR
07:30 19 °C 17.8 °C 1016.8 hPa NNW 4.8 km/h 4.8 km/h 93% 0 mm WeatherDisplay:10.37 W/m2 CLR
07:40 19 °C 17.8 °C 1016.8 hPa NNW 4.8 km/h 4.8 km/h 93% 0 mm WeatherDisplay:10.37 W/m2 CLR
07:45 19.1 °C 17.9 °C 1016.8 hPa NNW 4.8 km/h 4.8 km/h 93% 0 mm WeatherDisplay:10.37 W/m2 CLR
07:50 19.1 °C 17.9 °C 1017.2 hPa NNW 4.8 km/h 4.8 km/h 93% 0 mm WeatherDisplay:10.37 W/m2 CLR
07:55 19.1 °C 17.9 °C 1017.2 hPa NNW 4.8 km/h 4.8 km/h 93% 0 mm WeatherDisplay:10.37 W/m2 CLR
08:00 19.2 °C 18 °C 1017.2 hPa NNW 4.8 km/h 4.8 km/h 93% 0 mm WeatherDisplay:10.37 W/m2 CLR
08:05 19.2 °C 18 °C 1017.2 hPa NNW 4.8 km/h 4.8 km/h 93% 0 mm WeatherDisplay:10.37 W/m2 CLR
08:10 19.2 °C 18 °C 1017.2 hPa NNW 4.8 km/h 4.8 km/h 93% 0 mm WeatherDisplay:10.37 W/m2 CLR
08:15 19.2 °C 18.1 °C 1017.2 hPa WNW 4.8 km/h 4.8 km/h 93% 0 mm WeatherDisplay:10.37 W/m2 FEW
08:20 19.2 °C 18.1 °C 1017.2 hPa West 4.8 km/h 4.8 km/h 93% 0 mm WeatherDisplay:10.37 W/m2 FEW
08:25 19.3 °C 18.1 °C 1017.2 hPa West 4.8 km/h 4.8 km/h 93% 0 mm WeatherDisplay:10.37 W/m2 FEW
08:30 19.3 °C 18.2 °C 1017.2 hPa West 4.8 km/h 4.8 km/h 93% 0 mm WeatherDisplay:10.37 W/m2 FEW
08:40 19.5 °C 18.3 °C 1017.2 hPa West 4.8 km/h 4.8 km/h 93% 0 mm WeatherDisplay:10.37 W/m2 FEW
08:45 19.6 °C 18.4 °C 1017.2 hPa West 4.8 km/h 4.8 km/h 93% 0 mm WeatherDisplay:10.37 W/m2 FEW
08:50 19.7 °C 18.6 °C 1017.5 hPa West 4.8 km/h 4.8 km/h 93% 0 mm WeatherDisplay:10.37 W/m2 FEW
08:55 19.8 °C 18.6 °C 1017.5 hPa West 4.8 km/h 4.8 km/h 93% 0 mm WeatherDisplay:10.37 W/m2 FEW
09:00 19.9 °C 18.7 °C 1017.5 hPa West 4.8 km/h 4.8 km/h 93% 0 mm WeatherDisplay:10.37 W/m2 FEW
09:05 20.1 °C 18.9 °C 1017.5 hPa West 4.8 km/h 4.8 km/h 93% 0 mm WeatherDisplay:10.37 W/m2 FEW
09:10 20.2 °C 19.1 °C 1017.5 hPa West 4.8 km/h 4.8 km/h 93% 0 mm WeatherDisplay:10.37 W/m2 FEW
09:15 20.4 °C 19.2 °C 1017.5 hPa West 4.8 km/h 4.8 km/h 93% 0 mm WeatherDisplay:10.37 W/m2 CLR
09:20 20.7 °C 19.5 °C 1017.5 hPa West 4.8 km/h 4.8 km/h 93% 0 mm WeatherDisplay:10.37 W/m2 CLR
09:25 20.9 °C 19.7 °C 1017.5 hPa West 4.8 km/h 4.8 km/h 93% 0 mm WeatherDisplay:10.37 W/m2 CLR
09:30 21.2 °C 19.8 °C 1017.5 hPa West 4.8 km/h 4.8 km/h 92% 0 mm WeatherDisplay:10.37 W/m2 CLR
09:40 21.9 °C 20.2 °C 1017.8 hPa West 4.8 km/h 4.8 km/h 90% 0 mm WeatherDisplay:10.37 W/m2 CLR
09:45 22.1 °C 20.1 °C 1017.8 hPa West 4.8 km/h 4.8 km/h 88% 0 mm WeatherDisplay:10.37 W/m2 CLR
09:50 22.4 °C 20.2 °C 1017.8 hPa West 4.8 km/h 4.8 km/h 87% 0 mm WeatherDisplay:10.37 W/m2 CLR
09:55 22.8 °C 20.2 °C 1017.8 hPa West 4.8 km/h 4.8 km/h 85% 0 mm WeatherDisplay:10.37 W/m2 CLR
10:00 23.2 °C 20.5 °C 1017.8 hPa West 4.8 km/h 4.8 km/h 85% 0 mm WeatherDisplay:10.37 W/m2 CLR
10:05 23.4 °C 20.4 °C 1017.8 hPa West 4.8 km/h 4.8 km/h 83% 0 mm WeatherDisplay:10.37 W/m2 CLR
10:10 23.7 °C 20.7 °C 1017.8 hPa West 4.8 km/h 4.8 km/h 83% 0 mm WeatherDisplay:10.37 W/m2 CLR
10:15 24.1 °C 20.6 °C 1017.8 hPa West 3.2 km/h 4.8 km/h 81% 0 mm WeatherDisplay:10.37 W/m2 CLR
10:20 24.3 °C 20.2 °C 1018.2 hPa West 3.2 km/h 3.2 km/h 78% 0 mm WeatherDisplay:10.37 W/m2 CLR
10:25 24.6 °C 20.7 °C 1018.2 hPa West 3.2 km/h 3.2 km/h 79% 0 mm WeatherDisplay:10.37 W/m2 CLR
10:30 24.7 °C 20 °C 1018.2 hPa West 3.2 km/h 3.2 km/h 75% 0 mm WeatherDisplay:10.37 W/m2 CLR
10:35 24.9 °C 20.2 °C 1017.8 hPa West 3.2 km/h 3.2 km/h 75% 0 mm WeatherDisplay:10.37 W/m2 CLR
10:40 25.4 °C 20.6 °C 1017.8 hPa West 3.2 km/h 3.2 km/h 75% 0 mm WeatherDisplay:10.37 W/m2 CLR
10:45 25.8 °C 19.2 °C 1017.8 hPa West 3.2 km/h 3.2 km/h 67% 0 mm WeatherDisplay:10.37 W/m2 CLR
10:55 26.8 °C 19.4 °C 1018.2 hPa West 3.2 km/h 3.2 km/h 64% 0 mm WeatherDisplay:10.37 W/m2 CLR
11:00 27.2 °C 19.3 °C 1018.2 hPa West 3.2 km/h 3.2 km/h 62% 0 mm WeatherDisplay:10.37 W/m2 CLR
11:05 27.7 °C 20.1 °C 1017.8 hPa West 3.2 km/h 3.2 km/h 63% 0 mm WeatherDisplay:10.37 W/m2 CLR
11:10 28.2 °C 19.9 °C 1017.8 hPa West 3.2 km/h 3.2 km/h 61% 0 mm WeatherDisplay:10.37 W/m2 CLR
11:15 28.6 °C 20.1 °C 1017.8 hPa NW 8 km/h 8 km/h 60% 0 mm WeatherDisplay:10.37 W/m2 FEW
11:20 28.9 °C 19.5 °C 1017.8 hPa NNW 8 km/h 8 km/h 57% 0 mm WeatherDisplay:10.37 W/m2 FEW
11:25 28.9 °C 19.8 °C 1017.8 hPa NNW 8 km/h 8 km/h 58% 0 mm WeatherDisplay:10.37 W/m2 FEW
11:30 29 °C 19.6 °C 1017.8 hPa NNW 8 km/h 8 km/h 57% 0 mm WeatherDisplay:10.37 W/m2 FEW
11:40 29.7 °C 20.2 °C 1017.8 hPa NNW 8 km/h 8 km/h 57% 0 mm WeatherDisplay:10.37 W/m2 FEW
11:45 29.7 °C 20.3 °C 1017.8 hPa NNW 8 km/h 8 km/h 57% 0 mm WeatherDisplay:10.37 W/m2 FEW
11:50 29.9 °C 19.9 °C 1017.8 hPa NNW 8 km/h 8 km/h 55% 0 mm WeatherDisplay:10.37 W/m2 FEW
11:55 29.9 °C 19.6 °C 1017.8 hPa NNW 8 km/h 8 km/h 54% 0 mm WeatherDisplay:10.37 W/m2 FEW
12:00 29.8 °C 19.4 °C 1017.8 hPa NNW 8 km/h 8 km/h 54% 0 mm WeatherDisplay:10.37 W/m2 FEW
12:05 29.9 °C 19.6 °C 1017.8 hPa NNW 8 km/h 8 km/h 54% 0 mm WeatherDisplay:10.37 W/m2 FEW
12:10 29.9 °C 19 °C 1017.8 hPa NNW 8 km/h 8 km/h 52% 0 mm WeatherDisplay:10.37 W/m2 FEW
12:15 30.2 °C 18.9 °C 1017.8 hPa NNW 8 km/h 8 km/h 51% 0 mm WeatherDisplay:10.37 W/m2 FEW
12:20 30.3 °C 19.7 °C 1017.8 hPa North 8 km/h 8 km/h 53% 0 mm WeatherDisplay:10.37 W/m2 FEW
12:25 30.5 °C 19.8 °C 1017.8 hPa North 8 km/h 8 km/h 53% 0 mm WeatherDisplay:10.37 W/m2 FEW
12:30 30.4 °C 19.2 °C 1017.8 hPa North 8 km/h 8 km/h 51% 0 mm WeatherDisplay:10.37 W/m2 FEW
12:35 30.6 °C 19.3 °C 1017.8 hPa North 8 km/h 8 km/h 51% 0 mm WeatherDisplay:10.37 W/m2 FEW
12:40 30.7 °C 18.4 °C 1017.8 hPa North 8 km/h 8 km/h 48% 0 mm WeatherDisplay:10.37 W/m2 FEW
12:45 30.8 °C 19.2 °C 1017.8 hPa North 8 km/h 8 km/h 50% 0 mm WeatherDisplay:10.37 W/m2 FEW
12:50 30.9 °C 19.6 °C 1017.5 hPa North 8 km/h 8 km/h 51% 0 mm WeatherDisplay:10.37 W/m2 FEW
12:55 31.3 °C 20.3 °C 1017.5 hPa North 8 km/h 8 km/h 52% 0 mm WeatherDisplay:10.37 W/m2 FEW
13:00 31.4 °C 19.1 °C 1017.5 hPa North 8 km/h 8 km/h 48% 0 mm WeatherDisplay:10.37 W/m2 FEW
13:05 31 °C 19.1 °C 1017.5 hPa North 8 km/h 8 km/h 49% 0 mm WeatherDisplay:10.37 W/m2 FEW
13:10 30.8 °C 19.4 °C 1017.5 hPa North 8 km/h 8 km/h 51% 0 mm WeatherDisplay:10.37 W/m2 FEW
13:15 30.4 °C 19.2 °C 1017.5 hPa NNW 9.7 km/h 9.7 km/h 51% 0 mm WeatherDisplay:10.37 W/m2 FEW
13:20 30.2 °C 19.2 °C 1017.5 hPa NNW 9.7 km/h 9.7 km/h 52% 0 mm WeatherDisplay:10.37 W/m2 FEW
13:25 30.2 °C 19.6 °C 1017.5 hPa NNW 9.7 km/h 9.7 km/h 53% 0 mm WeatherDisplay:10.37 W/m2 FEW
13:30 30.1 °C 20 °C 1017.5 hPa NNW 9.7 km/h 9.7 km/h 55% 0 mm WeatherDisplay:10.37 W/m2 FEW
13:35 29.9 °C 19 °C 1017.2 hPa NNW 9.7 km/h 9.7 km/h 52% 0 mm WeatherDisplay:10.37 W/m2 FEW
13:40 29.8 °C 19.5 °C 1017.2 hPa NNW 9.7 km/h 9.7 km/h 54% 0 mm WeatherDisplay:10.37 W/m2 FEW
13:45 29.9 °C 19.3 °C 1017.2 hPa NNW 9.7 km/h 9.7 km/h 53% 0 mm WeatherDisplay:10.37 W/m2 FEW
13:50 30.2 °C 19.6 °C 1017.2 hPa NNW 9.7 km/h 9.7 km/h 53% 0 mm WeatherDisplay:10.37 W/m2 FEW
13:55 30.3 °C 18.7 °C 1017.2 hPa NNW 9.7 km/h 9.7 km/h 50% 0 mm WeatherDisplay:10.37 W/m2 FEW
14:00 30.6 °C 19.9 °C 1016.8 hPa NNW 9.7 km/h 9.7 km/h 53% 0 mm WeatherDisplay:10.37 W/m2 FEW
14:05 30.7 °C 18.8 °C 1016.8 hPa NNW 9.7 km/h 9.7 km/h 49% 0 mm WeatherDisplay:10.37 W/m2 FEW
14:10 30.7 °C 18.8 °C 1016.8 hPa NNW 9.7 km/h 9.7 km/h 49% 0 mm WeatherDisplay:10.37 W/m2 FEW
14:15 31.1 °C 19.8 °C 1016.8 hPa WNW 8 km/h 9.7 km/h 51% 0 mm WeatherDisplay:10.37 W/m2 FEW
14:20 31.3 °C 19.3 °C 1016.8 hPa West 8 km/h 8 km/h 49% 0 mm WeatherDisplay:10.37 W/m2 FEW
14:30 31.1 °C 18.8 °C 1016.5 hPa West 8 km/h 8 km/h 48% 0 mm WeatherDisplay:10.37 W/m2 FEW
14:35 30.9 °C 18.7 °C 1016.5 hPa West 8 km/h 8 km/h 48% 0 mm WeatherDisplay:10.37 W/m2 FEW
14:40 30.8 °C 18.2 °C 1016.5 hPa West 8 km/h 8 km/h 47% 0 mm WeatherDisplay:10.37 W/m2 FEW
14:45 30.6 °C 17.6 °C 1016.5 hPa West 8 km/h 8 km/h 46% 0 mm WeatherDisplay:10.37 W/m2 FEW
14:50 30.7 °C 18.1 °C 1016.5 hPa West 8 km/h 8 km/h 47% 0 mm WeatherDisplay:10.37 W/m2 FEW
15:00 30.8 °C 18.8 °C 1016.5 hPa West 8 km/h 8 km/h 49% 0 mm WeatherDisplay:10.37 W/m2 FEW
15:05 30.9 °C 18.2 °C 1016.5 hPa West 8 km/h 8 km/h 47% 0 mm WeatherDisplay:10.37 W/m2 FEW
15:10 30.7 °C 17.7 °C 1016.1 hPa West 8 km/h 8 km/h 46% 0 mm WeatherDisplay:10.37 W/m2 FEW
15:15 30.5 °C 18.2 °C 1016.1 hPa West 9.7 km/h 9.7 km/h 48% 0 mm WeatherDisplay:10.37 W/m2 FEW
15:20 30.3 °C 18.1 °C 1016.1 hPa West 9.7 km/h 9.7 km/h 48% 0 mm WeatherDisplay:10.37 W/m2 FEW
15:30 30.1 °C 18.2 °C 1016.1 hPa West 9.7 km/h 9.7 km/h 49% 0 mm WeatherDisplay:10.37 W/m2 FEW
15:40 29.7 °C 18.8 °C 1016.1 hPa West 9.7 km/h 9.7 km/h 52% 0 mm WeatherDisplay:10.37 W/m2 FEW
15:45 29.6 °C 18.4 °C 1016.1 hPa West 9.7 km/h 9.7 km/h 51% 0 mm WeatherDisplay:10.37 W/m2 FEW
15:50 29.5 °C 18 °C 1015.8 hPa West 9.7 km/h 9.7 km/h 50% 0 mm WeatherDisplay:10.37 W/m2 FEW
15:55 29.4 °C 17.9 °C 1015.8 hPa West 9.7 km/h 9.7 km/h 50% 0 mm WeatherDisplay:10.37 W/m2 FEW
16:00 29.4 °C 17.9 °C 1015.8 hPa West 9.7 km/h 9.7 km/h 50% 0 mm WeatherDisplay:10.37 W/m2 FEW
16:10 29.7 °C 18.1 °C 1015.8 hPa West 9.7 km/h 9.7 km/h 50% 0 mm WeatherDisplay:10.37 W/m2 FEW
16:15 29.8 °C 18.2 °C 1015.8 hPa NW 12.9 km/h 12.9 km/h 50% 0 mm WeatherDisplay:10.37 W/m2 FEW
16:20 29.8 °C 18.6 °C 1015.5 hPa NNW 12.9 km/h 12.9 km/h 51% 0 mm WeatherDisplay:10.37 W/m2 FEW
16:25 29.7 °C 17.2 °C 1015.5 hPa NNW 12.9 km/h 12.9 km/h 47% 0 mm WeatherDisplay:10.37 W/m2 FEW
16:30 29.7 °C 17.8 °C 1015.5 hPa NNW 12.9 km/h 12.9 km/h 49% 0 mm WeatherDisplay:10.37 W/m2 FEW
16:40 29.8 °C 18.3 °C 1015.5 hPa NNW 12.9 km/h 12.9 km/h 50% 0 mm WeatherDisplay:10.37 W/m2 FEW
16:45 29.7 °C 18.2 °C 1015.5 hPa NNW 12.9 km/h 12.9 km/h 50% 0 mm WeatherDisplay:10.37 W/m2 FEW
16:50 29.6 °C 18.7 °C 1015.5 hPa NNW 12.9 km/h 12.9 km/h 52% 0 mm WeatherDisplay:10.37 W/m2 FEW
16:55 29.4 °C 18.3 °C 1015.5 hPa NNW 12.9 km/h 12.9 km/h 51% 0 mm WeatherDisplay:10.37 W/m2 FEW
17:00 29.3 °C 19.1 °C 1015.5 hPa NNW 12.9 km/h 12.9 km/h 54% 0 mm WeatherDisplay:10.37 W/m2 FEW
17:10 29.1 °C 19.9 °C 1015.1 hPa NNW 12.9 km/h 12.9 km/h 58% 0 mm WeatherDisplay:10.37 W/m2 FEW
17:15 28.9 °C 19.8 °C 1015.1 hPa WNW 11.3 km/h 12.9 km/h 58% 0 mm WeatherDisplay:10.37 W/m2 SCT
17:20 28.7 °C 20.2 °C 1015.1 hPa West 11.3 km/h 11.3 km/h 60% 0 mm WeatherDisplay:10.37 W/m2 SCT
17:25 28.6 °C 19.5 °C 1015.1 hPa West 11.3 km/h 11.3 km/h 58% 0 mm WeatherDisplay:10.37 W/m2 SCT
17:30 28.4 °C 19.3 °C 1015.1 hPa West 11.3 km/h 11.3 km/h 58% 0 mm WeatherDisplay:10.37 W/m2 SCT
17:40 28.3 °C 19.5 °C 1015.1 hPa West 11.3 km/h 11.3 km/h 59% 0 mm WeatherDisplay:10.37 W/m2 SCT
17:45 28.3 °C 19.8 °C 1015.1 hPa West 11.3 km/h 11.3 km/h 60% 0 mm WeatherDisplay:10.37 W/m2 SCT
17:50 28.2 °C 19.7 °C 1015.1 hPa West 11.3 km/h 11.3 km/h 60% 0 mm WeatherDisplay:10.37 W/m2 SCT
17:55 28.1 °C 20.2 °C 1015.1 hPa West 11.3 km/h 11.3 km/h 62% 0 mm WeatherDisplay:10.37 W/m2 SCT
18:05 27.8 °C 19.3 °C 1015.1 hPa West 11.3 km/h 11.3 km/h 60% 0 mm WeatherDisplay:10.37 W/m2 SCT
18:10 27.7 °C 19.4 °C 1015.1 hPa West 11.3 km/h 11.3 km/h 61% 0 mm WeatherDisplay:10.37 W/m2 SCT
18:15 27.4 °C 19.5 °C 1015.1 hPa WNW 9.7 km/h 11.3 km/h 62% 0 mm WeatherDisplay:10.37 W/m2 SCT
18:20 27.3 °C 19.6 °C 1015.1 hPa WNW 9.7 km/h 9.7 km/h 63% 0 mm WeatherDisplay:10.37 W/m2 SCT
18:25 27.2 °C 19.8 °C 1015.1 hPa WNW 9.7 km/h 9.7 km/h 64% 0 mm WeatherDisplay:10.37 W/m2 SCT
18:30 27 °C 19.6 °C 1015.1 hPa WNW 9.7 km/h 9.7 km/h 64% 0 mm WeatherDisplay:10.37 W/m2 SCT
18:35 26.9 °C 19.7 °C 1015.5 hPa WNW 9.7 km/h 9.7 km/h 65% 0 mm WeatherDisplay:10.37 W/m2 SCT
18:40 26.6 °C 19.7 °C 1015.5 hPa WNW 9.7 km/h 9.7 km/h 66% 0 mm WeatherDisplay:10.37 W/m2 SCT
18:45 26.4 °C 19.8 °C 1015.5 hPa WNW 9.7 km/h 9.7 km/h 67% 0 mm WeatherDisplay:10.37 W/m2 SCT
18:50 26.3 °C 19.9 °C 1015.5 hPa WNW 9.7 km/h 9.7 km/h 68% 0 mm WeatherDisplay:10.37 W/m2 SCT
18:55 26.2 °C 19.8 °C 1015.5 hPa WNW 9.7 km/h 9.7 km/h 68% 0 mm WeatherDisplay:10.37 W/m2 SCT
19:00 26.1 °C 19.7 °C 1015.5 hPa WNW 9.7 km/h 9.7 km/h 68% 0 mm WeatherDisplay:10.37 W/m2 SCT
19:05 25.9 °C 19.8 °C 1015.5 hPa WNW 9.7 km/h 9.7 km/h 69% 0 mm WeatherDisplay:10.37 W/m2 SCT
19:10 25.7 °C 19.8 °C 1015.5 hPa WNW 9.7 km/h 9.7 km/h 70% 0 mm WeatherDisplay:10.37 W/m2 SCT
19:15 25.6 °C 19.7 °C 1015.5 hPa WNW 11.3 km/h 11.3 km/h 70% 0 mm WeatherDisplay:10.37 W/m2 BKN
19:20 25.4 °C 19.8 °C 1015.8 hPa West 11.3 km/h 11.3 km/h 71% 0 mm WeatherDisplay:10.37 W/m2 BKN
19:25 25.3 °C 19.7 °C 1015.8 hPa West 11.3 km/h 11.3 km/h 71% 0 mm WeatherDisplay:10.37 W/m2 BKN
19:30 25.2 °C 19.6 °C 1015.8 hPa West 11.3 km/h 11.3 km/h 71% 0 mm WeatherDisplay:10.37 W/m2 BKN
19:35 25.1 °C 19.7 °C 1015.8 hPa West 11.3 km/h 11.3 km/h 72% 0 mm WeatherDisplay:10.37 W/m2 BKN
19:40 24.9 °C 19.6 °C 1015.8 hPa West 11.3 km/h 11.3 km/h 72% 0 mm WeatherDisplay:10.37 W/m2 BKN
19:45 24.8 °C 19.6 °C 1015.8 hPa West 11.3 km/h 11.3 km/h 73% 0 mm WeatherDisplay:10.37 W/m2 BKN
19:50 24.6 °C 19.4 °C 1015.8 hPa West 11.3 km/h 11.3 km/h 73% 0 mm WeatherDisplay:10.37 W/m2 BKN
19:55 24.5 °C 19.6 °C 1015.8 hPa West 11.3 km/h 11.3 km/h 74% 0 mm WeatherDisplay:10.37 W/m2 BKN
20:00 24.5 °C 19.6 °C 1015.8 hPa West 11.3 km/h 11.3 km/h 74% 0 mm WeatherDisplay:10.37 W/m2 BKN
20:10 24.4 °C 19.5 °C 1015.8 hPa West 11.3 km/h 11.3 km/h 74% 0 mm WeatherDisplay:10.37 W/m2 BKN
20:15 24.3 °C 19.4 °C 1015.8 hPa West 11.3 km/h 11.3 km/h 74% 0 mm WeatherDisplay:10.37 W/m2 BKN
20:20 24.2 °C 19.6 °C 1015.8 hPa West 11.3 km/h 11.3 km/h 75% 0 mm WeatherDisplay:10.37 W/m2 BKN
20:25 24.3 °C 19.6 °C 1015.8 hPa West 11.3 km/h 11.3 km/h 75% 0 mm WeatherDisplay:10.37 W/m2 BKN
20:30 24.3 °C 19.6 °C 1016.1 hPa West 11.3 km/h 11.3 km/h 75% 0 mm WeatherDisplay:10.37 W/m2 BKN
20:40 24.1 °C 19.3 °C 1016.1 hPa West 11.3 km/h 11.3 km/h 75% 0 mm WeatherDisplay:10.37 W/m2 BKN
20:45 24 °C 19.5 °C 1016.1 hPa West 11.3 km/h 11.3 km/h 76% 0 mm WeatherDisplay:10.37 W/m2 BKN
20:50 23.8 °C 19.3 °C 1016.1 hPa West 11.3 km/h 11.3 km/h 76% 0 mm WeatherDisplay:10.37 W/m2 BKN
20:55 23.7 °C 19.4 °C 1016.1 hPa West 11.3 km/h 11.3 km/h 77% 0 mm WeatherDisplay:10.37 W/m2 BKN
21:00 23.6 °C 19.3 °C 1016.1 hPa West 11.3 km/h 11.3 km/h 77% 0 mm WeatherDisplay:10.37 W/m2 BKN
21:05 23.6 °C 19.3 °C 1016.1 hPa West 11.3 km/h 11.3 km/h 77% 0 mm WeatherDisplay:10.37 W/m2 BKN
21:10 23.5 °C 19.4 °C 1016.5 hPa West 11.3 km/h 11.3 km/h 78% 0 mm WeatherDisplay:10.37 W/m2 BKN
21:15 23.4 °C 19.4 °C 1016.5 hPa West 11.3 km/h 11.3 km/h 78% 0 mm WeatherDisplay:10.37 W/m2 SCT
21:20 23.4 °C 19.3 °C 1016.5 hPa West 11.3 km/h 11.3 km/h 78% 0 mm WeatherDisplay:10.37 W/m2 SCT
21:25 23.3 °C 19.5 °C 1016.5 hPa West 11.3 km/h 11.3 km/h 79% 0 mm WeatherDisplay:10.37 W/m2 SCT
21:30 23.3 °C 19.4 °C 1016.5 hPa West 11.3 km/h 11.3 km/h 79% 0 mm WeatherDisplay:10.37 W/m2 SCT
21:35 23.2 °C 19.4 °C 1016.5 hPa West 11.3 km/h 11.3 km/h 79% 0 mm WeatherDisplay:10.37 W/m2 SCT
21:40 23.2 °C 19.3 °C 1016.5 hPa West 11.3 km/h 11.3 km/h 79% 0 mm WeatherDisplay:10.37 W/m2 SCT
21:45 23.2 °C 19.5 °C 1016.5 hPa West 11.3 km/h 11.3 km/h 80% 0 mm WeatherDisplay:10.37 W/m2 SCT
21:50 23.1 °C 19.3 °C 1016.5 hPa West 11.3 km/h 11.3 km/h 79% 0 mm WeatherDisplay:10.37 W/m2 SCT
21:55 23.1 °C 19.4 °C 1016.5 hPa West 11.3 km/h 11.3 km/h 80% 0 mm WeatherDisplay:10.37 W/m2 SCT
22:00 23.1 °C 19.4 °C 1016.5 hPa West 11.3 km/h 11.3 km/h 80% 0 mm WeatherDisplay:10.37 W/m2 SCT
22:05 23.1 °C 19.4 °C 1016.8 hPa West 11.3 km/h 11.3 km/h 80% 0 mm WeatherDisplay:10.37 W/m2 SCT
22:10 23.1 °C 19.4 °C 1016.8 hPa West 11.3 km/h 11.3 km/h 80% 0 mm WeatherDisplay:10.37 W/m2 SCT
22:15 23.2 °C 19.6 °C 1016.8 hPa West 8 km/h 11.3 km/h 80% 0 mm WeatherDisplay:10.37 W/m2 FEW
22:20 23.2 °C 19.6 °C 1016.8 hPa West 8 km/h 8 km/h 80% 0 mm WeatherDisplay:10.37 W/m2 FEW
22:25 23.2 °C 19.6 °C 1016.8 hPa West 8 km/h 8 km/h 80% 0 mm WeatherDisplay:10.37 W/m2 FEW
22:30 23.2 °C 19.5 °C 1016.8 hPa West 8 km/h 8 km/h 80% 0 mm WeatherDisplay:10.37 W/m2 FEW
22:35 23.1 °C 19.7 °C 1016.8 hPa West 8 km/h 8 km/h 81% 0 mm WeatherDisplay:10.37 W/m2 FEW
22:40 23.1 °C 19.7 °C 1016.8 hPa West 8 km/h 8 km/h 81% 0 mm WeatherDisplay:10.37 W/m2 FEW
22:50 23.1 °C 19.7 °C 1016.8 hPa West 8 km/h 8 km/h 81% 0 mm WeatherDisplay:10.37 W/m2 FEW
22:55 23 °C 19.6 °C 1016.8 hPa West 8 km/h 8 km/h 81% 0 mm WeatherDisplay:10.37 W/m2 FEW
23:00 22.9 °C 19.5 °C 1016.8 hPa West 8 km/h 8 km/h 81% 0 mm WeatherDisplay:10.37 W/m2 FEW
23:05 23 °C 19.6 °C 1016.8 hPa West 8 km/h 8 km/h 81% 0 mm WeatherDisplay:10.37 W/m2 FEW
23:10 23.1 °C 19.6 °C 1016.8 hPa West 8 km/h 8 km/h 81% 0 mm WeatherDisplay:10.37 W/m2 FEW
23:20 23.2 °C 19.7 °C 1016.8 hPa NNW 4.8 km/h 4.8 km/h 81% 0 mm WeatherDisplay:10.37 W/m2 FEW
23:30 23.2 °C 19.8 °C 1016.8 hPa NNW 4.8 km/h 4.8 km/h 81% 0 mm WeatherDisplay:10.37 W/m2 FEW
23:35 23.1 °C 19.7 °C 1016.8 hPa NNW 4.8 km/h 4.8 km/h 81% 0 mm WeatherDisplay:10.37 W/m2 FEW
23:40 23 °C 19.7 °C 1017.2 hPa NNW 4.8 km/h 4.8 km/h 82% 0 mm WeatherDisplay:10.37 W/m2 FEW
23:45 22.9 °C 19.7 °C 1017.2 hPa NNW 4.8 km/h 4.8 km/h 82% 0 mm WeatherDisplay:10.37 W/m2 FEW
23:50 23 °C 19.8 °C 1017.2 hPa NNW 4.8 km/h 4.8 km/h 82% 0 mm WeatherDisplay:10.37 W/m2 FEW
23:55 22.8 °C 19.6 °C 1017.2 hPa NNW 4.8 km/h 4.8 km/h 82% 0 mm WeatherDisplay:10.37 W/m2 FEW
Piedmont Bend
Compliments of Weather Underground - 4 mb